createdAt,value
2023-09-08T00:02:35.071Z,97288.47
2023-09-08T00:05:01.796Z,97281.28
2023-09-08T00:07:28.498Z,97281.94
2023-09-08T00:09:55.130Z,97282.31
2023-09-08T00:12:22.343Z,97275.22
2023-09-08T00:14:48.993Z,97269.34
2023-09-08T00:17:15.714Z,97284.97
2023-09-08T00:19:42.690Z,97288.91
2023-09-08T00:22:09.624Z,97279.94
2023-09-08T00:24:36.245Z,97278.88
2023-09-08T00:27:02.995Z,97283.69
2023-09-08T00:29:29.926Z,97285.31
2023-09-08T00:31:56.845Z,97282.44
2023-09-08T00:34:23.801Z,97288.19
2023-09-08T00:36:50.571Z,97278.41
2023-09-08T00:39:17.242Z,97293.25
2023-09-08T00:41:43.954Z,97295.56
2023-09-08T00:44:12.409Z,97287.34
2023-09-08T00:46:40.085Z,97283.56
2023-09-08T00:49:07.617Z,97284.59
2023-09-08T00:51:36.140Z,97289.06
2023-09-08T00:54:02.909Z,97289.41
2023-09-08T00:56:30.968Z,97291.78
2023-09-08T00:58:57.965Z,97295.59
2023-09-08T01:01:24.711Z,97294.84
2023-09-08T01:03:51.491Z,97297.41
2023-09-08T01:06:18.933Z,97298.84
2023-09-08T01:08:46.498Z,97290.31
2023-09-08T01:11:13.531Z,97283.19
2023-09-08T01:13:40.162Z,97286.06
2023-09-08T01:16:08.910Z,97288.38
2023-09-08T01:18:36.117Z,97284.06
2023-09-08T01:21:33.605Z,97289.97
2023-09-08T01:24:20.981Z,97290.69
2023-09-08T01:26:48.988Z,97286.91
2023-09-08T01:29:17.920Z,97295.00
2023-09-08T01:31:45.020Z,97294.03
2023-09-08T01:34:13.545Z,97295.00
2023-09-08T01:36:40.256Z,97285.00
2023-09-08T01:39:06.913Z,97287.75
2023-09-08T01:41:33.779Z,97286.34
2023-09-08T01:44:01.183Z,97282.88
2023-09-08T01:46:27.894Z,97276.00
2023-09-08T01:48:54.661Z,97283.59
2023-09-08T01:51:21.333Z,97273.63
2023-09-08T01:53:48.262Z,97268.81
2023-09-08T01:56:14.894Z,97277.00
2023-09-08T01:58:41.658Z,97273.88
2023-09-08T02:01:08.434Z,97273.16
2023-09-08T02:03:35.693Z,97278.22
2023-09-08T02:06:02.421Z,97276.28
2023-09-08T02:08:29.045Z,97271.97
2023-09-08T02:10:55.719Z,97272.44
2023-09-08T02:13:23.376Z,97281.72
2023-09-08T02:15:50.172Z,97283.75
2023-09-08T02:18:16.896Z,97287.09
2023-09-08T02:20:43.548Z,97281.84
2023-09-08T02:23:10.296Z,97279.19
2023-09-08T02:25:36.938Z,97283.53
2023-09-08T02:28:04.023Z,97276.53
2023-09-08T02:30:31.408Z,97269.28
2023-09-08T02:33:00.238Z,97270.16
2023-09-08T02:35:27.005Z,97276.41
2023-09-08T02:37:55.661Z,97275.09
2023-09-08T02:40:22.427Z,97273.19
2023-09-08T02:42:50.002Z,97281.13
2023-09-08T02:45:16.836Z,97273.66
2023-09-08T02:47:43.632Z,97274.97
2023-09-08T02:50:10.596Z,97282.81
2023-09-08T02:52:37.340Z,97274.75
2023-09-08T02:55:04.146Z,97272.34
2023-09-08T02:57:30.830Z,97273.50
2023-09-08T02:59:57.940Z,97266.91
2023-09-08T03:02:33.789Z,97266.59
2023-09-08T03:05:01.826Z,97266.41
2023-09-08T03:07:29.224Z,97261.22
2023-09-08T03:09:55.937Z,97252.66
2023-09-08T03:12:22.577Z,97260.47
2023-09-08T03:14:49.203Z,97246.78
2023-09-08T03:17:15.935Z,97258.69
2023-09-08T03:19:46.302Z,97248.56
2023-09-08T03:22:13.077Z,97244.72
2023-09-08T03:24:39.709Z,97256.09
2023-09-08T03:27:06.455Z,97249.72
2023-09-08T03:29:33.282Z,97252.06
2023-09-08T03:32:00.065Z,97244.47
2023-09-08T03:34:27.114Z,97248.91
2023-09-08T03:36:54.963Z,97251.41
2023-09-08T03:39:21.841Z,97248.75
2023-09-08T03:41:48.514Z,97247.22
2023-09-08T03:44:15.225Z,97241.56
2023-09-08T03:46:41.969Z,97242.78
2023-09-08T03:49:09.464Z,97239.91
2023-09-08T03:51:36.187Z,97237.34
2023-09-08T03:54:04.621Z,97229.69
2023-09-08T03:56:31.416Z,97232.06
2023-09-08T03:58:58.135Z,97232.38
2023-09-08T04:01:25.100Z,97232.56
2023-09-08T04:03:51.982Z,97238.72
2023-09-08T04:06:18.707Z,97236.25
2023-09-08T04:08:45.455Z,97235.06
2023-09-08T04:11:12.143Z,97237.88
2023-09-08T04:13:38.801Z,97240.94
2023-09-08T04:16:05.550Z,97235.47
2023-09-08T04:18:32.379Z,97232.81
2023-09-08T04:20:59.848Z,97240.53
2023-09-08T04:23:26.599Z,97243.50
2023-09-08T04:25:53.339Z,97240.66
2023-09-08T04:28:20.855Z,97234.97
2023-09-08T04:30:47.557Z,97245.94
2023-09-08T04:33:14.382Z,97242.28
2023-09-08T04:35:41.119Z,97234.78
2023-09-08T04:38:08.891Z,97241.44
2023-09-08T04:40:35.645Z,97236.84
2023-09-08T04:43:02.413Z,97244.03
2023-09-08T04:45:29.195Z,97238.66
2023-09-08T04:47:55.957Z,97241.38
2023-09-08T04:50:22.720Z,97239.88
2023-09-08T04:52:50.776Z,97244.16
2023-09-08T04:55:18.549Z,97238.94
2023-09-08T04:57:45.311Z,97244.59
2023-09-08T05:00:13.195Z,97243.94
2023-09-08T05:02:48.378Z,97253.34
2023-09-08T05:05:15.622Z,97253.59
2023-09-08T05:07:42.401Z,97253.31
2023-09-08T05:10:09.588Z,97250.94
2023-09-08T05:12:38.409Z,97248.19
2023-09-08T05:15:11.461Z,97251.56
2023-09-08T05:17:39.828Z,97254.97
2023-09-08T05:20:07.577Z,97247.72
2023-09-08T05:22:34.283Z,97247.03
2023-09-08T05:25:01.454Z,97248.59
2023-09-08T05:27:28.242Z,97247.75
2023-09-08T05:29:55.413Z,97249.00
2023-09-08T05:32:22.235Z,97249.84
2023-09-08T05:34:48.920Z,97249.84
2023-09-08T05:37:15.900Z,97255.72
2023-09-08T05:39:43.957Z,97260.81
2023-09-08T05:42:10.635Z,97249.16
2023-09-08T05:44:37.676Z,97246.38
2023-09-08T05:47:04.724Z,97260.25
2023-09-08T05:49:31.439Z,97264.31
2023-09-08T05:51:58.133Z,97262.31
2023-09-08T05:54:24.882Z,97256.41
2023-09-08T05:56:51.795Z,97258.78
2023-09-08T05:59:18.486Z,97265.78
2023-09-08T06:01:45.148Z,97263.78
2023-09-08T06:04:12.793Z,97263.94
2023-09-08T06:06:39.746Z,97260.78
2023-09-08T06:09:08.961Z,97268.53
2023-09-08T06:11:36.452Z,97271.72
2023-09-08T06:14:03.605Z,97261.47
2023-09-08T06:16:36.706Z,97268.47
2023-09-08T06:19:04.373Z,97267.44
2023-09-08T06:21:31.285Z,97266.38
2023-09-08T06:23:58.645Z,97267.97
2023-09-08T06:26:25.810Z,97267.91
2023-09-08T06:28:53.424Z,97267.19
2023-09-08T06:31:20.402Z,97269.09
2023-09-08T06:33:47.727Z,97259.84
2023-09-08T06:36:14.542Z,97256.38
2023-09-08T06:38:41.213Z,97259.38
2023-09-08T06:41:12.461Z,97260.50
2023-09-08T06:43:39.651Z,97267.34
2023-09-08T06:46:13.137Z,97267.13
2023-09-08T06:48:39.898Z,97264.34
2023-09-08T06:51:06.673Z,97262.38
2023-09-08T06:53:34.017Z,97255.84
2023-09-08T06:56:00.872Z,97256.88
2023-09-08T06:58:27.919Z,97256.56
2023-09-08T07:00:55.869Z,97260.41
2023-09-08T07:03:24.186Z,97259.50
2023-09-08T07:05:52.002Z,97262.47
2023-09-08T07:08:19.338Z,97262.56
2023-09-08T07:10:53.441Z,97263.22
2023-09-08T07:13:20.300Z,97267.69
2023-09-08T07:15:46.954Z,97263.06
2023-09-08T07:18:13.727Z,97259.81
2023-09-08T07:20:40.492Z,97256.50
2023-09-08T07:23:07.988Z,97262.53
2023-09-08T07:25:35.025Z,97261.09
2023-09-08T07:28:01.994Z,97263.50
2023-09-08T07:30:28.758Z,97262.94
2023-09-08T07:32:55.638Z,97258.31
2023-09-08T07:35:24.743Z,97257.44
2023-09-08T07:37:51.662Z,97264.00
2023-09-08T07:40:18.702Z,97255.78
2023-09-08T07:42:45.710Z,97262.34
2023-09-08T07:45:14.002Z,97267.00
2023-09-08T07:47:40.818Z,97265.84
2023-09-08T07:50:17.966Z,97260.50
2023-09-08T07:52:44.731Z,97264.66
2023-09-08T07:55:11.646Z,97259.13
2023-09-08T07:57:38.355Z,97268.13
2023-09-08T08:00:05.631Z,97266.44
2023-09-08T08:02:51.460Z,97269.38
2023-09-08T08:05:18.500Z,97268.53
2023-09-08T08:07:45.727Z,97269.69
2023-09-08T08:10:13.688Z,97268.34
2023-09-08T08:12:41.401Z,97269.94
2023-09-08T08:15:10.623Z,97265.56
2023-09-08T08:17:38.810Z,97265.50
2023-09-08T08:20:10.839Z,97273.16
2023-09-08T08:22:38.585Z,97263.31
2023-09-08T08:25:06.050Z,97264.91
2023-09-08T08:27:32.882Z,97269.47
2023-09-08T08:30:01.935Z,97265.81
2023-09-08T08:32:29.476Z,97259.94
2023-09-08T08:34:56.503Z,97272.00
2023-09-08T08:37:23.570Z,97268.75
2023-09-08T08:39:50.225Z,97272.75
2023-09-08T08:42:17.286Z,97269.47
2023-09-08T08:44:45.137Z,97265.63
2023-09-08T08:47:12.398Z,97260.53
2023-09-08T08:49:43.440Z,97257.66
2023-09-08T08:52:10.432Z,97251.75
2023-09-08T08:54:40.831Z,97250.75
2023-09-08T08:57:12.264Z,97252.22
2023-09-08T08:59:39.130Z,97247.97
2023-09-08T09:02:06.469Z,97240.63
2023-09-08T09:04:34.236Z,97249.84
2023-09-08T09:07:01.006Z,97244.47
2023-09-08T09:09:27.737Z,97245.69
2023-09-08T09:11:54.930Z,97246.25
2023-09-08T09:14:21.855Z,97243.56
2023-09-08T09:16:48.979Z,97248.03
2023-09-08T09:19:28.361Z,97248.75
2023-09-08T09:21:56.759Z,97257.84
2023-09-08T09:24:39.211Z,97253.84
2023-09-08T09:27:09.028Z,97262.59
2023-09-08T09:29:46.591Z,97251.72
2023-09-08T09:32:14.210Z,97248.50
2023-09-08T09:34:52.392Z,97250.06
2023-09-08T09:37:19.902Z,97250.88
2023-09-08T09:39:56.196Z,97253.66
2023-09-08T09:42:24.229Z,97241.81
2023-09-08T09:44:52.807Z,97241.66
2023-09-08T09:47:20.485Z,97244.50
2023-09-08T09:49:48.804Z,97238.72
2023-09-08T09:52:24.205Z,97245.75
2023-09-08T09:54:55.812Z,97244.91
2023-09-08T09:57:24.631Z,97249.09
2023-09-08T09:59:52.821Z,97239.75
2023-09-08T10:02:21.806Z,97231.63
2023-09-08T10:04:52.422Z,97236.44
2023-09-08T10:07:19.603Z,97241.66
2023-09-08T10:09:47.756Z,97241.22
2023-09-08T10:12:16.996Z,97234.56
2023-09-08T10:14:44.498Z,97239.50
2023-09-08T10:17:18.204Z,97245.19
2023-09-08T10:22:21.233Z,97232.25
2023-09-08T10:24:51.384Z,97236.44
2023-09-08T10:27:21.523Z,97232.69
2023-09-08T10:29:49.307Z,97234.34
2023-09-08T10:32:17.769Z,97237.88
2023-09-08T10:34:45.989Z,97239.78
2023-09-08T10:37:22.804Z,97232.28
2023-09-08T10:39:49.645Z,97239.97
2023-09-08T10:42:19.782Z,97232.50
2023-09-08T10:44:49.261Z,97246.94
2023-09-08T10:47:25.679Z,97242.00
2023-09-08T10:50:00.656Z,97236.66
2023-09-08T10:52:28.436Z,97235.41
2023-09-08T10:54:56.998Z,97236.84
2023-09-08T10:57:25.767Z,97235.19
2023-09-08T10:59:55.286Z,97225.19
2023-09-08T11:02:52.027Z,97231.22
2023-09-08T11:05:21.011Z,97224.56
2023-09-08T11:07:50.883Z,97227.28
2023-09-08T11:10:17.583Z,97229.13
2023-09-08T11:12:44.265Z,97227.28
2023-09-08T11:15:11.336Z,97218.94
2023-09-08T11:17:43.358Z,97229.34
2023-09-08T11:20:11.706Z,97228.13
2023-09-08T11:22:40.662Z,97230.41
2023-09-08T11:25:09.247Z,97223.31
2023-09-08T11:27:36.067Z,97228.75
2023-09-08T11:30:02.907Z,97224.78
2023-09-08T11:32:36.949Z,97230.38
2023-09-08T11:35:09.128Z,97229.78
2023-09-08T11:37:40.210Z,97223.31
2023-09-08T11:40:15.514Z,97227.50
2023-09-08T11:42:46.874Z,97218.09
2023-09-08T11:45:24.552Z,97224.94
2023-09-08T11:47:51.517Z,97223.91
2023-09-08T11:50:19.971Z,97227.06
2023-09-08T11:52:48.879Z,97213.28
2023-09-08T11:55:16.370Z,97213.06
2023-09-08T11:57:45.306Z,97211.66
2023-09-08T12:00:17.438Z,97211.63
2023-09-08T12:02:47.935Z,97207.25
2023-09-08T12:05:23.784Z,97217.25
2023-09-08T12:07:59.747Z,97214.94
2023-09-08T12:10:26.751Z,97210.19
2023-09-08T12:12:55.750Z,97203.09
2023-09-08T12:15:35.273Z,97207.03
2023-09-08T12:18:04.345Z,97196.44
2023-09-08T12:20:31.814Z,97196.41
2023-09-08T12:23:03.384Z,97200.59
2023-09-08T12:25:32.926Z,97201.63
2023-09-08T12:28:00.868Z,97195.41
2023-09-08T12:30:33.814Z,97200.38
2023-09-08T12:33:02.664Z,97198.69
2023-09-08T12:35:32.406Z,97203.94
2023-09-08T12:38:01.484Z,97209.53
2023-09-08T12:40:29.873Z,97204.53
2023-09-08T12:42:59.328Z,97199.09
2023-09-08T12:45:29.720Z,97200.34
2023-09-08T12:48:02.716Z,97201.59
2023-09-08T12:50:30.116Z,97201.41
2023-09-08T12:52:58.076Z,97196.63
2023-09-08T12:55:25.155Z,97196.59
2023-09-08T12:57:55.592Z,97195.16
2023-09-08T13:00:26.329Z,97197.50
2023-09-08T13:02:53.214Z,97191.00
2023-09-08T13:05:20.218Z,97190.16
2023-09-08T13:07:46.909Z,97191.59
2023-09-08T13:10:13.662Z,97192.03
2023-09-08T13:12:40.715Z,97191.78
2023-09-08T13:15:08.089Z,97185.25
2023-09-08T13:17:34.774Z,97186.38
2023-09-08T13:20:02.412Z,97190.72
2023-09-08T13:22:29.120Z,97179.91
2023-09-08T13:24:56.208Z,97178.44
2023-09-08T13:27:22.904Z,97176.56
2023-09-08T13:29:49.754Z,97174.47
2023-09-08T13:32:16.750Z,97171.16
2023-09-08T13:34:44.806Z,97179.91
2023-09-08T13:37:11.675Z,97173.28
2023-09-08T13:39:38.548Z,97171.19
2023-09-08T13:42:20.076Z,97172.63
2023-09-08T13:44:46.836Z,97161.59
2023-09-08T13:47:13.735Z,97164.09
2023-09-08T13:49:41.548Z,97166.59
2023-09-08T13:52:08.982Z,97165.78
2023-09-08T13:54:36.057Z,97160.13
2023-09-08T13:59:35.656Z,97158.47
2023-09-08T14:04:35.296Z,97156.22
2023-09-08T14:07:09.268Z,97156.59
2023-09-08T14:09:53.794Z,97156.59
2023-09-08T14:14:53.209Z,97155.31
2023-09-08T14:17:19.819Z,97152.84
2023-09-08T14:19:46.470Z,97158.22
2023-09-08T14:22:13.725Z,97151.16
2023-09-08T14:24:40.397Z,97153.22
2023-09-08T14:27:07.027Z,97154.47
2023-09-08T14:29:35.233Z,97137.78
2023-09-08T14:32:02.151Z,97146.97
2023-09-08T14:34:28.927Z,97145.72
2023-09-08T14:36:55.964Z,97144.91
2023-09-08T14:39:22.699Z,97147.41
2023-09-08T14:41:51.593Z,97144.69
2023-09-08T14:44:18.437Z,97138.44
2023-09-08T14:46:45.180Z,97139.06
2023-09-08T14:49:15.297Z,97140.50
2023-09-08T14:51:42.458Z,97138.88
2023-09-08T14:54:09.227Z,97140.34
2023-09-08T14:56:35.935Z,97135.75
2023-09-08T14:59:02.562Z,97141.34
2023-09-08T15:01:29.262Z,97142.84
2023-09-08T15:03:56.921Z,97142.63
2023-09-08T15:06:25.305Z,97144.28
2023-09-08T15:08:54.260Z,97142.44
2023-09-08T15:11:20.892Z,97141.22
2023-09-08T15:13:47.537Z,97138.31
2023-09-08T15:16:15.855Z,97136.63
2023-09-08T15:18:42.867Z,97142.00
2023-09-08T15:21:09.843Z,97138.28
2023-09-08T15:23:37.103Z,97141.66
2023-09-08T15:26:04.539Z,97140.00
2023-09-08T15:28:31.714Z,97126.41
2023-09-08T15:30:58.564Z,97133.28
2023-09-08T15:33:25.744Z,97131.84
2023-09-08T15:35:53.542Z,97134.72
2023-09-08T15:38:21.306Z,97132.84
2023-09-08T15:41:06.841Z,97128.06
2023-09-08T15:43:34.437Z,97136.81
2023-09-08T15:46:01.326Z,97136.41
2023-09-08T15:48:28.085Z,97129.13
2023-09-08T15:50:54.707Z,97134.53
2023-09-08T15:53:21.353Z,97127.91
2023-09-08T15:55:48.025Z,97135.59
2023-09-08T15:58:14.808Z,97132.88
2023-09-08T16:00:41.847Z,97119.13
2023-09-08T16:03:31.532Z,97128.09
2023-09-08T16:05:58.758Z,97119.56
2023-09-08T16:08:25.600Z,97129.56
2023-09-08T16:10:52.888Z,97128.09
2023-09-08T16:13:21.175Z,97131.22
2023-09-08T16:15:47.980Z,97126.19
2023-09-08T16:18:14.631Z,97125.63
2023-09-08T16:20:41.318Z,97123.31
2023-09-08T16:23:08.618Z,97129.16
2023-09-08T16:25:35.477Z,97124.38
2023-09-08T16:28:02.320Z,97120.22
2023-09-08T16:30:30.092Z,97117.72
2023-09-08T16:32:56.923Z,97116.63
2023-09-08T16:35:23.695Z,97121.22
2023-09-08T16:37:50.446Z,97114.97
2023-09-08T16:40:17.290Z,97121.03
2023-09-08T16:42:43.999Z,97127.66
2023-09-08T16:45:12.185Z,97126.22
2023-09-08T16:47:40.473Z,97125.81
2023-09-08T16:50:07.761Z,97120.19
2023-09-08T16:52:34.598Z,97131.81
2023-09-08T16:55:01.290Z,97133.91
2023-09-08T16:57:27.904Z,97128.28
2023-09-08T16:59:54.622Z,97128.69
2023-09-08T17:02:21.394Z,97136.81
2023-09-08T17:04:50.215Z,97138.47
2023-09-08T17:07:17.025Z,97134.94
2023-09-08T17:09:43.960Z,97141.56
2023-09-08T17:12:10.909Z,97130.66
2023-09-08T17:14:37.911Z,97144.75
2023-09-08T17:17:04.843Z,97135.59
2023-09-08T17:19:31.679Z,97140.94
2023-09-08T17:21:59.414Z,97139.06
2023-09-08T17:24:27.292Z,97140.19
2023-09-08T17:26:58.219Z,97143.09
2023-09-08T17:29:24.942Z,97142.22
2023-09-08T17:31:51.647Z,97138.22
2023-09-08T17:34:21.176Z,97138.00
2023-09-08T17:36:56.873Z,97144.56
2023-09-08T17:39:24.359Z,97141.09
2023-09-08T17:41:51.083Z,97135.72
2023-09-08T17:44:18.608Z,97136.22
2023-09-08T17:46:45.638Z,97138.59
2023-09-08T17:49:12.402Z,97143.97
2023-09-08T17:51:39.056Z,97141.22
2023-09-08T17:54:05.809Z,97145.31
2023-09-08T17:56:33.448Z,97145.63
2023-09-08T17:59:00.048Z,97143.34
2023-09-08T18:01:26.846Z,97134.91
2023-09-08T18:03:53.753Z,97144.94
2023-09-08T18:06:20.627Z,97141.31
2023-09-08T18:08:51.449Z,97142.41
2023-09-08T18:11:20.794Z,97147.19
2023-09-08T18:13:48.705Z,97144.91
2023-09-08T18:16:15.460Z,97146.31
2023-09-08T18:18:44.193Z,97145.56
2023-09-08T18:21:10.874Z,97152.63
2023-09-08T18:23:38.467Z,97153.44
2023-09-08T18:26:05.701Z,97153.06
2023-09-08T18:28:32.376Z,97152.22
2023-09-08T18:30:59.143Z,97157.09
2023-09-08T18:33:26.525Z,97164.91
2023-09-08T18:35:53.427Z,97172.00
2023-09-08T18:38:20.169Z,97169.59
2023-09-08T18:40:47.362Z,97171.84
2023-09-08T18:43:15.595Z,97175.13
2023-09-08T18:45:44.992Z,97177.50
2023-09-08T18:48:12.052Z,97175.34
2023-09-08T18:50:38.793Z,97183.28
2023-09-08T18:53:05.521Z,97181.97
2023-09-08T18:55:32.276Z,97192.22
2023-09-08T18:57:58.960Z,97189.72
2023-09-08T19:00:25.625Z,97186.69
2023-09-08T19:02:52.569Z,97186.69
2023-09-08T19:05:19.442Z,97196.09
2023-09-08T19:07:46.308Z,97192.25
2023-09-08T19:10:13.140Z,97190.75
2023-09-08T19:12:39.760Z,97193.78
2023-09-08T19:15:06.871Z,97193.78
2023-09-08T19:17:33.790Z,97197.47
2023-09-08T19:20:00.505Z,97191.44
2023-09-08T19:22:27.154Z,97190.53
2023-09-08T19:24:53.891Z,97195.53
2023-09-08T19:27:20.589Z,97193.91
2023-09-08T19:29:51.169Z,97200.25
2023-09-08T19:32:18.165Z,97207.56
2023-09-08T19:34:44.853Z,97195.72
2023-09-08T19:37:11.581Z,97200.75
2023-09-08T19:39:38.450Z,97202.84
2023-09-08T19:42:05.416Z,97194.44
2023-09-08T19:44:32.692Z,97191.84
2023-09-08T19:46:59.472Z,97196.22
2023-09-08T19:49:26.219Z,97190.00
2023-09-08T19:51:52.859Z,97197.69
2023-09-08T19:54:19.630Z,97197.59
2023-09-08T19:56:46.220Z,97197.22
2023-09-08T19:59:13.296Z,97193.38
2023-09-08T20:01:39.966Z,97196.38
2023-09-08T20:04:06.888Z,97190.69
2023-09-08T20:06:33.591Z,97188.56
2023-09-08T20:09:00.309Z,97191.63
2023-09-08T20:11:27.286Z,97202.56
2023-09-08T20:13:55.181Z,97194.31
2023-09-08T20:16:21.976Z,97185.41
2023-09-08T20:18:48.715Z,97189.81
2023-09-08T20:21:15.364Z,97184.28
2023-09-08T20:23:42.200Z,97187.91
2023-09-08T20:26:09.830Z,97187.34
2023-09-08T20:28:36.537Z,97186.91
2023-09-08T20:33:32.937Z,97190.25
2023-09-08T20:35:59.591Z,97183.78
2023-09-08T20:38:26.331Z,97189.44
2023-09-08T20:40:53.588Z,97183.25
2023-09-08T20:43:24.344Z,97189.59
2023-09-08T20:45:55.002Z,97184.25
2023-09-08T20:48:22.931Z,97189.03
2023-09-08T20:50:59.741Z,97191.31
2023-09-08T20:53:26.428Z,97182.94
2023-09-08T20:55:54.123Z,97195.09
2023-09-08T20:58:21.049Z,97188.75
2023-09-08T21:00:47.755Z,97191.59
2023-09-08T21:03:23.877Z,97184.19
2023-09-08T21:05:51.649Z,97182.00
2023-09-08T21:08:21.970Z,97184.19
2023-09-08T21:10:49.013Z,97182.69
2023-09-08T21:13:16.319Z,97185.75
2023-09-08T21:15:43.573Z,97179.97
2023-09-08T21:18:10.470Z,97185.44
2023-09-08T21:20:37.599Z,97186.13
2023-09-08T21:23:04.485Z,97184.19
2023-09-08T21:25:35.353Z,97186.00
2023-09-08T21:28:02.885Z,97190.94
2023-09-08T21:30:30.220Z,97182.09
2023-09-08T21:32:57.078Z,97192.50
2023-09-08T21:35:23.952Z,97180.75
2023-09-08T21:37:50.609Z,97179.75
2023-09-08T21:40:17.362Z,97184.69
2023-09-08T21:42:44.151Z,97186.09
2023-09-08T21:45:11.186Z,97178.88
2023-09-08T21:47:37.883Z,97182.84
2023-09-08T21:50:04.937Z,97186.59
2023-09-08T21:52:38.356Z,97178.50
2023-09-08T21:55:07.421Z,97189.94
2023-09-08T21:57:34.359Z,97188.59
2023-09-08T22:00:00.987Z,97187.91
2023-09-08T22:02:28.545Z,97189.78
2023-09-08T22:04:55.795Z,97195.94
2023-09-08T22:07:23.048Z,97187.69
2023-09-08T22:09:52.930Z,97176.53
2023-09-08T22:12:20.421Z,97173.31
2023-09-08T22:14:49.971Z,97185.63
2023-09-08T22:17:17.608Z,97182.66
2023-09-08T22:19:44.393Z,97181.06
2023-09-08T22:22:11.474Z,97172.38
2023-09-08T22:24:38.822Z,97174.31
2023-09-08T22:27:05.581Z,97176.03
2023-09-08T22:29:33.721Z,97175.78
2023-09-08T22:32:00.661Z,97175.22
2023-09-08T22:34:28.200Z,97171.31
2023-09-08T22:36:55.222Z,97174.03
2023-09-08T22:39:21.955Z,97174.59
2023-09-08T22:41:48.696Z,97171.78
2023-09-08T22:44:15.459Z,97168.41
2023-09-08T22:46:42.194Z,97169.94
2023-09-08T22:49:09.066Z,97176.41
2023-09-08T22:51:35.785Z,97175.59
2023-09-08T22:54:03.868Z,97173.31
2023-09-08T22:56:30.832Z,97176.69
2023-09-08T22:58:57.525Z,97184.00
2023-09-08T23:01:24.987Z,97182.44
2023-09-08T23:03:51.884Z,97182.44
2023-09-08T23:06:19.608Z,97182.31
2023-09-08T23:08:46.393Z,97184.28
2023-09-08T23:11:13.660Z,97184.28
2023-09-08T23:13:40.787Z,97179.66
2023-09-08T23:16:12.489Z,97183.00
2023-09-08T23:18:39.231Z,97182.88
2023-09-08T23:21:05.914Z,97187.75
2023-09-08T23:23:32.638Z,97194.06
2023-09-08T23:25:59.250Z,97182.84
2023-09-08T23:28:26.134Z,97181.44
2023-09-08T23:30:52.916Z,97185.91
2023-09-08T23:33:19.659Z,97181.72
2023-09-08T23:35:46.259Z,97186.91
2023-09-08T23:38:12.893Z,97189.53
2023-09-08T23:40:39.505Z,97188.00
2023-09-08T23:43:06.189Z,97189.25
2023-09-08T23:45:33.737Z,97177.09
2023-09-08T23:48:00.627Z,97175.41
2023-09-08T23:50:53.715Z,97177.47
2023-09-08T23:53:21.254Z,97179.88
2023-09-08T23:55:49.139Z,97168.66
2023-09-08T23:58:16.602Z,97172.00
